createdAt,value
2023-04-21T00:01:48.618Z,70.60
2023-04-21T00:04:15.521Z,70.00
2023-04-21T00:06:42.597Z,70.00
2023-04-21T00:09:09.631Z,70.20
2023-04-21T00:11:36.369Z,70.00
2023-04-21T00:14:02.926Z,70.00
2023-04-21T00:16:29.623Z,70.10
2023-04-21T00:18:56.241Z,70.20
2023-04-21T00:21:22.836Z,70.30
2023-04-21T00:23:50.051Z,70.20
2023-04-21T00:26:16.783Z,70.30
2023-04-21T00:28:43.402Z,70.00
2023-04-21T00:31:10.038Z,70.00
2023-04-21T00:33:36.710Z,70.10
2023-04-21T00:36:03.487Z,70.00
2023-04-21T00:38:30.072Z,69.90
2023-04-21T00:40:56.616Z,70.10
2023-04-21T00:43:23.234Z,70.00
2023-04-21T00:45:49.782Z,70.00
2023-04-21T00:48:16.535Z,69.90
2023-04-21T00:50:44.613Z,69.90
2023-04-21T00:53:12.561Z,70.00
2023-04-21T00:55:39.161Z,69.90
2023-04-21T00:58:05.955Z,70.00
2023-04-21T01:00:32.574Z,69.90
2023-04-21T01:03:01.314Z,69.90
2023-04-21T01:05:27.996Z,70.20
2023-04-21T01:07:54.903Z,70.00
2023-04-21T01:10:21.484Z,69.90
2023-04-21T01:12:48.376Z,70.20
2023-04-21T01:15:17.041Z,70.20
2023-04-21T01:17:43.917Z,70.00
2023-04-21T01:20:14.591Z,70.10
2023-04-21T01:22:42.353Z,69.90
2023-04-21T01:25:09.545Z,70.00
2023-04-21T01:27:36.424Z,70.00
2023-04-21T01:30:04.100Z,70.00
2023-04-21T01:32:31.531Z,69.70
2023-04-21T01:34:59.675Z,69.90
2023-04-21T01:37:32.149Z,69.90
2023-04-21T01:40:01.016Z,69.90
2023-04-21T01:42:29.196Z,69.90
2023-04-21T01:44:56.055Z,70.10
2023-04-21T01:47:24.117Z,69.90
2023-04-21T01:49:50.887Z,69.70
2023-04-21T01:52:17.602Z,70.10
2023-04-21T01:54:44.281Z,70.20
2023-04-21T01:57:11.236Z,69.90
2023-04-21T01:59:37.992Z,70.00
2023-04-21T02:02:04.878Z,70.00
2023-04-21T02:04:31.764Z,70.00
2023-04-21T02:06:58.514Z,70.00
2023-04-21T02:09:25.139Z,69.90
2023-04-21T02:11:52.132Z,70.20
2023-04-21T02:14:18.743Z,69.80
2023-04-21T02:16:45.679Z,70.00
2023-04-21T02:19:12.402Z,70.10
2023-04-21T02:21:39.090Z,70.00
2023-04-21T02:24:05.871Z,70.10
2023-04-21T02:26:32.601Z,69.90
2023-04-21T02:28:59.772Z,69.90
2023-04-21T02:31:26.737Z,69.90
2023-04-21T02:33:54.496Z,70.00
2023-04-21T02:36:21.366Z,69.90
2023-04-21T02:38:48.024Z,70.00
2023-04-21T02:41:14.670Z,69.90
2023-04-21T02:43:41.456Z,69.90
2023-04-21T02:46:08.804Z,69.80
2023-04-21T02:48:36.148Z,69.90
2023-04-21T02:51:04.282Z,69.90
2023-04-21T02:53:31.155Z,69.90
2023-04-21T02:55:58.025Z,69.90
2023-04-21T02:58:24.827Z,69.70
2023-04-21T03:00:51.544Z,69.90
2023-04-21T03:03:18.520Z,69.80
2023-04-21T03:05:45.479Z,69.80
2023-04-21T03:08:12.090Z,69.90
2023-04-21T03:10:39.140Z,69.90
2023-04-21T03:13:05.980Z,69.80
2023-04-21T03:15:32.671Z,69.80
2023-04-21T03:17:59.276Z,69.70
2023-04-21T03:20:26.000Z,69.90
2023-04-21T03:22:54.253Z,69.70
2023-04-21T03:25:21.601Z,69.80
2023-04-21T03:27:48.291Z,69.80
2023-04-21T03:30:15.191Z,69.80
2023-04-21T03:32:41.962Z,69.90
2023-04-21T03:35:08.583Z,69.90
2023-04-21T03:37:35.244Z,70.00
2023-04-21T03:40:02.089Z,69.90
2023-04-21T03:42:30.163Z,69.90
2023-04-21T03:44:56.798Z,70.00
2023-04-21T03:47:23.486Z,69.70
2023-04-21T03:49:51.134Z,69.60
2023-04-21T03:52:17.759Z,69.70
2023-04-21T03:54:44.357Z,69.80
2023-04-21T03:57:11.008Z,69.70
2023-04-21T03:59:37.597Z,69.80
2023-04-21T04:02:04.378Z,69.90
2023-04-21T04:04:31.644Z,69.90
2023-04-21T04:06:58.609Z,69.60
2023-04-21T04:09:25.253Z,69.70
2023-04-21T04:11:52.315Z,69.60
2023-04-21T04:14:18.936Z,69.50
2023-04-21T04:16:45.833Z,69.40
2023-04-21T04:19:12.567Z,53.40
2023-04-21T04:21:39.374Z,52.80
2023-04-21T04:24:06.189Z,53.90
2023-04-21T04:26:38.308Z,56.30
2023-04-21T04:29:06.054Z,55.50
2023-04-21T04:31:32.722Z,60.30
2023-04-21T04:33:59.430Z,64.00
2023-04-21T04:36:27.680Z,68.60
2023-04-21T04:38:54.299Z,66.70
2023-04-21T04:41:21.030Z,66.30
2023-04-21T04:43:47.727Z,66.60
2023-04-21T04:46:14.396Z,68.90
2023-04-21T04:48:41.326Z,69.20
2023-04-21T04:51:08.020Z,69.40
2023-04-21T04:53:34.763Z,69.40
2023-04-21T04:56:01.535Z,69.60
2023-04-21T04:58:28.118Z,68.60
2023-04-21T05:00:54.763Z,68.10
2023-04-21T05:03:21.670Z,67.70
2023-04-21T05:05:48.578Z,66.40
2023-04-21T05:08:17.236Z,65.30
2023-04-21T05:10:44.720Z,65.30
2023-04-21T05:13:11.323Z,66.00
2023-04-21T05:15:37.970Z,66.30
2023-04-21T05:18:04.719Z,66.50
2023-04-21T05:20:31.647Z,66.30
2023-04-21T05:22:58.282Z,66.20
2023-04-21T05:25:24.930Z,65.80
2023-04-21T05:27:51.642Z,65.80
2023-04-21T05:30:18.252Z,65.70
2023-04-21T05:32:44.901Z,65.40
2023-04-21T05:35:11.546Z,65.40
2023-04-21T05:37:38.157Z,65.40
2023-04-21T05:40:05.152Z,65.40
2023-04-21T05:42:31.865Z,65.20
2023-04-21T05:44:58.589Z,65.20
2023-04-21T05:47:25.190Z,65.20
2023-04-21T05:49:53.630Z,65.10
2023-04-21T05:52:21.677Z,65.00
2023-04-21T05:54:48.333Z,65.10
2023-04-21T05:57:16.550Z,65.10
2023-04-21T05:59:43.660Z,65.10
2023-04-21T06:02:11.212Z,65.10
2023-04-21T06:04:39.217Z,65.10
2023-04-21T06:07:10.307Z,65.00
2023-04-21T06:09:37.292Z,64.90
2023-04-21T06:12:04.178Z,65.00
2023-04-21T06:14:30.879Z,65.00
2023-04-21T06:16:57.673Z,65.00
2023-04-21T06:19:24.279Z,65.00
2023-04-21T06:21:51.033Z,64.80
2023-04-21T06:24:24.802Z,65.00
2023-04-21T06:26:53.100Z,64.90
2023-04-21T06:29:20.906Z,64.90
2023-04-21T06:31:48.085Z,64.90
2023-04-21T06:34:14.887Z,64.90
2023-04-21T06:36:41.514Z,65.10
2023-04-21T06:39:08.184Z,65.00
2023-04-21T06:41:34.804Z,64.90
2023-04-21T06:44:01.574Z,65.00
2023-04-21T06:46:28.237Z,65.00
2023-04-21T06:48:54.872Z,65.10
2023-04-21T06:51:21.492Z,65.00
2023-04-21T06:53:48.164Z,65.10
2023-04-21T06:56:14.803Z,65.00
2023-04-21T06:58:41.392Z,65.00
2023-04-21T07:01:08.105Z,65.00
2023-04-21T07:03:34.904Z,65.00
2023-04-21T07:06:01.619Z,65.10
2023-04-21T07:08:28.397Z,64.90
2023-04-21T07:10:55.229Z,65.00
2023-04-21T07:13:22.009Z,65.00
2023-04-21T07:15:48.711Z,65.00
2023-04-21T07:18:15.416Z,65.00
2023-04-21T07:20:42.070Z,64.80
2023-04-21T07:23:08.706Z,65.10
2023-04-21T07:25:35.509Z,64.80
2023-04-21T07:28:03.292Z,64.90
2023-04-21T07:30:30.530Z,65.00
2023-04-21T07:32:58.027Z,64.90
2023-04-21T07:35:25.641Z,64.90
2023-04-21T07:37:52.300Z,65.10
2023-04-21T07:40:19.004Z,65.20
2023-04-21T07:42:45.900Z,65.10
2023-04-21T07:45:12.612Z,65.10
2023-04-21T07:47:39.387Z,65.10
2023-04-21T07:50:06.775Z,65.10
2023-04-21T07:52:33.531Z,65.00
2023-04-21T07:55:00.338Z,65.10
2023-04-21T07:57:27.022Z,65.00
2023-04-21T07:59:53.668Z,65.10
2023-04-21T08:02:20.429Z,65.10
2023-04-21T08:04:47.232Z,64.90
2023-04-21T08:07:15.233Z,65.00
2023-04-21T08:09:41.963Z,64.90
2023-04-21T08:12:08.618Z,64.90
2023-04-21T08:14:35.405Z,64.90
2023-04-21T08:17:02.121Z,65.00
2023-04-21T08:19:28.859Z,65.10
2023-04-21T08:21:55.855Z,65.10
2023-04-21T08:24:22.927Z,64.90
2023-04-21T08:26:49.824Z,64.80
2023-04-21T08:29:16.483Z,64.90
2023-04-21T08:31:43.882Z,65.00
2023-04-21T08:34:11.008Z,65.00
2023-04-21T08:36:37.833Z,65.10
2023-04-21T08:39:04.520Z,65.00
2023-04-21T08:41:31.171Z,65.10
2023-04-21T08:43:57.914Z,64.90
2023-04-21T08:46:24.797Z,64.90
2023-04-21T08:48:52.990Z,65.00
2023-04-21T08:51:23.965Z,65.00
2023-04-21T08:53:50.777Z,64.90
2023-04-21T08:56:17.570Z,65.00
2023-04-21T08:58:44.257Z,65.00
2023-04-21T09:01:12.114Z,64.90
2023-04-21T09:03:39.238Z,64.90
2023-04-21T09:06:08.704Z,64.90
2023-04-21T09:08:39.894Z,64.90
2023-04-21T09:11:06.605Z,65.00
2023-04-21T09:13:35.914Z,64.80
2023-04-21T09:16:15.742Z,64.90
2023-04-21T09:18:44.222Z,64.90
2023-04-21T09:21:13.976Z,64.90
2023-04-21T09:23:46.016Z,64.90
2023-04-21T09:26:12.904Z,64.70
2023-04-21T09:28:44.010Z,64.80
2023-04-21T09:31:15.540Z,64.80
2023-04-21T09:34:00.393Z,64.80
2023-04-21T09:36:29.631Z,64.90
2023-04-21T09:39:24.242Z,64.80
2023-04-21T09:41:44.601Z,64.80
2023-04-21T09:44:11.675Z,64.80
2023-04-21T09:46:43.634Z,64.70
2023-04-21T09:49:13.746Z,64.80
2023-04-21T09:52:02.193Z,64.80
2023-04-21T09:54:32.656Z,64.80
2023-04-21T09:57:02.610Z,64.80
2023-04-21T09:59:34.718Z,64.80
2023-04-21T10:02:04.632Z,64.80
2023-04-21T10:04:33.541Z,64.70
2023-04-21T10:07:01.072Z,64.70
2023-04-21T10:09:33.323Z,64.70
2023-04-21T10:12:02.774Z,64.60
2023-04-21T10:14:29.435Z,64.80
2023-04-21T10:17:06.896Z,64.70
2023-04-21T10:19:39.324Z,64.60
2023-04-21T10:22:10.487Z,64.60
2023-04-21T10:24:41.183Z,64.50
2023-04-21T10:27:12.317Z,64.60
2023-04-21T10:29:52.352Z,64.50
2023-04-21T10:32:42.321Z,64.50
2023-04-21T10:35:10.825Z,64.50
2023-04-21T10:37:37.579Z,64.50
2023-04-21T10:40:09.359Z,64.60
2023-04-21T10:42:37.241Z,64.50
2023-04-21T10:45:10.760Z,64.60
2023-04-21T10:47:40.989Z,64.50
2023-04-21T10:50:13.677Z,64.50
2023-04-21T10:52:47.391Z,64.50
2023-04-21T10:55:15.894Z,64.40
2023-04-21T10:57:45.154Z,64.50
2023-04-21T11:00:15.636Z,64.40
2023-04-21T11:02:44.693Z,64.50
2023-04-21T11:05:12.024Z,64.50
2023-04-21T11:07:38.794Z,64.50
2023-04-21T11:10:07.846Z,64.50
2023-04-21T11:12:38.701Z,64.40
2023-04-21T11:15:11.207Z,64.40
2023-04-21T11:17:43.283Z,64.30
2023-04-21T11:20:10.067Z,64.40
2023-04-21T11:22:37.881Z,64.40
2023-04-21T11:25:05.052Z,64.40
2023-04-21T11:27:31.708Z,64.50
2023-04-21T11:29:58.506Z,64.40
2023-04-21T11:32:25.285Z,64.40
2023-04-21T11:34:52.015Z,64.40
2023-04-21T11:37:28.929Z,64.40
2023-04-21T11:39:59.835Z,64.40
2023-04-21T11:42:27.183Z,64.40
2023-04-21T11:44:57.234Z,64.40
2023-04-21T11:47:26.679Z,64.40
2023-04-21T11:49:58.728Z,64.40
2023-04-21T11:52:37.308Z,64.30
2023-04-21T11:55:12.953Z,64.40
2023-04-21T11:57:40.811Z,64.40
2023-04-21T12:00:15.853Z,64.40
2023-04-21T12:02:43.529Z,64.30
2023-04-21T12:05:11.616Z,64.40
2023-04-21T12:07:42.978Z,64.40
2023-04-21T12:10:11.554Z,64.40
2023-04-21T12:12:39.556Z,64.50
2023-04-21T12:15:07.401Z,64.40
2023-04-21T12:17:48.512Z,64.40
2023-04-21T12:20:23.547Z,64.40
2023-04-21T12:22:50.733Z,64.40
2023-04-21T12:25:17.769Z,64.40
2023-04-21T12:27:52.083Z,64.30
2023-04-21T12:30:20.193Z,64.30
2023-04-21T12:32:48.079Z,64.20
2023-04-21T12:35:15.473Z,64.40
2023-04-21T12:37:42.146Z,64.30
2023-04-21T12:40:09.471Z,64.30
2023-04-21T12:42:38.113Z,64.40
2023-04-21T12:45:05.925Z,64.20
2023-04-21T12:47:32.756Z,64.20
2023-04-21T12:49:59.490Z,64.20
2023-04-21T12:52:26.802Z,65.00
2023-04-21T12:54:53.481Z,64.20
2023-04-21T12:57:21.422Z,64.20
2023-04-21T12:59:48.423Z,64.20
2023-04-21T13:02:15.267Z,64.10
2023-04-21T13:04:42.526Z,64.10
2023-04-21T13:07:09.545Z,64.10
2023-04-21T13:09:36.272Z,64.10
2023-04-21T13:12:03.072Z,64.00
2023-04-21T13:14:30.192Z,64.00
2023-04-21T13:16:57.076Z,64.00
2023-04-21T13:19:23.950Z,64.00
2023-04-21T13:21:53.485Z,63.90
2023-04-21T13:24:20.961Z,63.90
2023-04-21T13:26:47.604Z,63.90
2023-04-21T13:29:14.267Z,63.80
2023-04-21T13:31:40.974Z,63.90
2023-04-21T13:34:07.832Z,63.90
2023-04-21T13:36:34.574Z,63.90
2023-04-21T13:39:01.932Z,63.90
2023-04-21T13:41:28.734Z,63.80
2023-04-21T13:43:55.383Z,63.70
2023-04-21T13:46:22.445Z,63.80
2023-04-21T13:48:51.449Z,63.70
2023-04-21T13:51:19.267Z,63.70
2023-04-21T13:53:46.034Z,63.70
2023-04-21T13:56:13.846Z,63.70
2023-04-21T13:58:41.618Z,63.70
2023-04-21T14:01:08.502Z,63.60
2023-04-21T14:03:36.501Z,63.50
2023-04-21T14:06:03.518Z,63.60
2023-04-21T14:08:30.297Z,63.40
2023-04-21T14:10:57.604Z,63.60
2023-04-21T14:16:00.341Z,63.50
2023-04-21T14:18:27.136Z,63.40
2023-04-21T14:20:53.767Z,63.40
2023-04-21T14:23:20.503Z,63.60
2023-04-21T14:25:47.089Z,63.60
2023-04-21T14:28:14.471Z,63.50
2023-04-21T14:30:42.941Z,63.40
2023-04-21T14:33:09.833Z,63.40
2023-04-21T14:35:39.720Z,63.40
2023-04-21T14:38:06.468Z,63.40
2023-04-21T14:40:33.170Z,63.40
2023-04-21T14:42:59.898Z,63.30
2023-04-21T14:45:26.841Z,63.20
2023-04-21T14:47:53.670Z,63.30
2023-04-21T14:50:20.395Z,63.20
2023-04-21T14:52:49.441Z,63.30
2023-04-21T14:55:16.882Z,63.20
2023-04-21T14:57:43.647Z,63.40
2023-04-21T15:00:11.429Z,63.40
2023-04-21T15:02:39.470Z,63.60
2023-04-21T15:05:08.064Z,64.10
2023-04-21T15:07:34.905Z,64.30
2023-04-21T15:10:01.514Z,64.80
2023-04-21T15:12:28.213Z,64.80
2023-04-21T15:14:54.958Z,65.10
2023-04-21T15:17:21.754Z,65.50
2023-04-21T15:19:48.477Z,65.60
2023-04-21T15:22:15.382Z,65.90
2023-04-21T15:24:42.150Z,66.30
2023-04-21T15:27:08.926Z,66.40
2023-04-21T15:29:35.955Z,66.60
2023-04-21T15:32:03.530Z,66.80
2023-04-21T15:34:30.169Z,66.80
2023-04-21T15:36:57.125Z,67.10
2023-04-21T15:39:23.758Z,67.40
2023-04-21T15:41:50.802Z,67.80
2023-04-21T15:44:17.483Z,68.70
2023-04-21T15:46:44.252Z,67.80
2023-04-21T15:49:10.883Z,67.10
2023-04-21T15:51:37.960Z,66.40
2023-04-21T15:54:04.929Z,65.60
2023-04-21T15:56:31.633Z,65.10
2023-04-21T15:58:58.335Z,65.30
2023-04-21T16:01:25.024Z,65.20
2023-04-21T16:03:52.076Z,64.90
2023-04-21T16:06:20.808Z,64.90
2023-04-21T16:08:47.562Z,65.50
2023-04-21T16:11:14.307Z,64.60
2023-04-21T16:13:41.070Z,64.90
2023-04-21T16:16:08.998Z,64.70
2023-04-21T16:18:35.965Z,65.10
2023-04-21T16:21:02.966Z,64.70
2023-04-21T16:23:30.012Z,64.50
2023-04-21T16:25:57.125Z,64.40
2023-04-21T16:28:23.871Z,64.10
2023-04-21T16:30:50.613Z,64.30
2023-04-21T16:33:17.532Z,64.00
2023-04-21T16:35:44.352Z,63.50
2023-04-21T16:38:11.329Z,63.10
2023-04-21T16:40:38.048Z,63.50
2023-04-21T16:43:05.129Z,63.20
2023-04-21T16:45:31.852Z,62.60
2023-04-21T16:47:58.664Z,62.50
2023-04-21T16:50:25.901Z,62.30
2023-04-21T16:52:52.665Z,62.40
2023-04-21T16:55:19.493Z,63.00
2023-04-21T16:57:46.350Z,62.10
2023-04-21T17:00:13.542Z,62.00
2023-04-21T17:02:40.435Z,61.90
2023-04-21T17:05:07.567Z,61.80
2023-04-21T17:07:34.481Z,61.60
2023-04-21T17:10:01.227Z,61.40
2023-04-21T17:12:27.918Z,61.30
2023-04-21T17:14:54.568Z,61.20
2023-04-21T17:17:21.259Z,61.20
2023-04-21T17:19:48.271Z,61.10
2023-04-21T17:22:14.963Z,61.00
2023-04-21T17:24:52.440Z,60.70
2023-04-21T17:27:20.793Z,60.60
2023-04-21T17:29:47.520Z,60.60
2023-04-21T17:32:14.479Z,60.60
2023-04-21T17:34:41.305Z,60.60
2023-04-21T17:37:08.047Z,60.50
2023-04-21T17:39:34.743Z,61.40
2023-04-21T17:42:02.601Z,60.50
2023-04-21T17:44:29.714Z,60.70
2023-04-21T17:46:58.004Z,54.90
2023-04-21T17:49:25.283Z,53.30
2023-04-21T17:51:52.012Z,54.10
2023-04-21T17:54:18.785Z,55.10
2023-04-21T17:56:46.191Z,55.00
2023-04-21T17:59:13.686Z,54.10
2023-04-21T18:01:40.689Z,53.60
2023-04-21T18:04:07.712Z,54.10
2023-04-21T18:06:35.336Z,53.30
2023-04-21T18:09:02.154Z,52.40
2023-04-21T18:11:28.800Z,52.20
2023-04-21T18:13:55.421Z,52.90
2023-04-21T18:16:22.184Z,52.80
2023-04-21T18:18:49.837Z,54.50
2023-04-21T18:21:16.820Z,56.30
2023-04-21T18:23:44.150Z,56.80
2023-04-21T18:26:10.867Z,57.40
2023-04-21T18:28:37.577Z,57.90
2023-04-21T18:31:04.278Z,59.30
2023-04-21T18:33:31.011Z,59.60
2023-04-21T18:35:58.023Z,60.60
2023-04-21T18:38:24.666Z,61.60
2023-04-21T18:40:51.383Z,62.00
2023-04-21T18:43:18.279Z,61.90
2023-04-21T18:45:45.145Z,62.20
2023-04-21T18:48:11.914Z,62.10
2023-04-21T18:50:40.910Z,62.70
2023-04-21T18:53:08.528Z,62.60
2023-04-21T18:55:36.348Z,63.50
2023-04-21T18:58:03.107Z,63.20
2023-04-21T19:00:31.692Z,61.90
2023-04-21T19:03:00.952Z,61.30
2023-04-21T19:05:29.729Z,61.00
2023-04-21T19:07:58.057Z,60.50
2023-04-21T19:10:24.707Z,60.40
2023-04-21T19:12:51.336Z,60.40
2023-04-21T19:15:18.205Z,60.30
2023-04-21T19:17:45.018Z,60.30
2023-04-21T19:20:12.218Z,61.10
2023-04-21T19:22:38.991Z,60.50
2023-04-21T19:25:06.971Z,60.70
2023-04-21T19:27:33.898Z,60.70
2023-04-21T19:30:01.021Z,60.60
2023-04-21T19:32:27.797Z,60.70
2023-04-21T19:34:54.599Z,60.80
2023-04-21T19:37:21.361Z,60.80
2023-04-21T19:39:48.130Z,60.80
2023-04-21T19:42:14.870Z,60.90
2023-04-21T19:44:41.559Z,60.90
2023-04-21T19:47:08.227Z,61.10
2023-04-21T19:49:35.406Z,61.00
2023-04-21T19:52:02.132Z,61.10
2023-04-21T19:54:28.758Z,61.10
2023-04-21T19:56:55.829Z,61.30
2023-04-21T19:59:22.539Z,61.30
2023-04-21T20:01:49.199Z,61.40
2023-04-21T20:04:16.507Z,61.40
2023-04-21T20:06:43.950Z,61.40
2023-04-21T20:09:10.989Z,61.50
2023-04-21T20:11:37.762Z,61.60
2023-04-21T20:14:04.405Z,61.60
2023-04-21T20:16:31.935Z,61.60
2023-04-21T20:18:58.935Z,61.60
2023-04-21T20:21:25.743Z,61.80
2023-04-21T20:23:52.553Z,61.80
2023-04-21T20:26:19.175Z,61.90
2023-04-21T20:28:45.767Z,61.80
2023-04-21T20:31:12.438Z,62.00
2023-04-21T20:33:39.094Z,62.00
2023-04-21T20:36:08.875Z,62.10
2023-04-21T20:38:35.834Z,62.10
2023-04-21T20:41:03.177Z,62.00
2023-04-21T20:43:32.979Z,62.10
2023-04-21T20:46:01.432Z,62.20
2023-04-21T20:48:28.154Z,62.20
2023-04-21T20:50:55.645Z,62.30
2023-04-21T20:53:22.711Z,62.40
2023-04-21T20:55:49.458Z,62.40
2023-04-21T20:58:16.061Z,62.50
2023-04-21T21:00:42.724Z,62.40
2023-04-21T21:03:11.426Z,62.40
2023-04-21T21:05:38.675Z,62.50
2023-04-21T21:08:07.093Z,62.50
2023-04-21T21:10:34.140Z,62.60
2023-04-21T21:13:00.839Z,62.60
2023-04-21T21:15:28.510Z,62.60
2023-04-21T21:17:55.205Z,62.60
2023-04-21T21:20:21.901Z,62.60
2023-04-21T21:22:48.504Z,62.60
2023-04-21T21:25:15.199Z,62.70
2023-04-21T21:27:41.877Z,62.70
2023-04-21T21:30:09.088Z,63.60
2023-04-21T21:32:35.879Z,62.80
2023-04-21T21:35:02.820Z,63.50
2023-04-21T21:37:30.585Z,62.70
2023-04-21T21:39:57.289Z,62.70
2023-04-21T21:42:23.993Z,62.90
2023-04-21T21:44:50.558Z,62.90
2023-04-21T21:47:18.147Z,62.90
2023-04-21T21:49:44.902Z,62.90
2023-04-21T21:52:11.580Z,62.90
2023-04-21T21:54:38.352Z,63.00
2023-04-21T21:57:05.092Z,62.90
2023-04-21T21:59:31.898Z,62.90
2023-04-21T22:01:58.654Z,62.90
2023-04-21T22:04:25.343Z,62.90
2023-04-21T22:06:51.992Z,62.90
2023-04-21T22:09:19.057Z,62.90
2023-04-21T22:11:46.129Z,62.90
2023-04-21T22:14:22.885Z,62.90
2023-04-21T22:16:52.781Z,63.00
2023-04-21T22:19:20.231Z,63.00
2023-04-21T22:21:47.071Z,63.10
2023-04-21T22:24:13.839Z,63.00
2023-04-21T22:26:40.501Z,63.00
2023-04-21T22:29:07.275Z,63.00
2023-04-21T22:31:34.156Z,63.10
2023-04-21T22:34:00.932Z,63.20
2023-04-21T22:36:27.703Z,63.00
2023-04-21T22:38:54.340Z,63.00
2023-04-21T22:41:21.107Z,63.10
2023-04-21T22:43:48.019Z,63.00
2023-04-21T22:46:14.939Z,63.10
2023-04-21T22:48:41.724Z,63.10
2023-04-21T22:51:08.427Z,63.10
2023-04-21T22:53:35.312Z,63.00
2023-04-21T22:56:04.327Z,63.00
2023-04-21T22:58:31.335Z,63.10
2023-04-21T23:00:58.011Z,63.10
2023-04-21T23:03:24.863Z,63.00
2023-04-21T23:05:51.668Z,63.00
2023-04-21T23:08:18.246Z,63.10
2023-04-21T23:10:44.910Z,63.00
2023-04-21T23:13:11.542Z,63.00
2023-04-21T23:15:38.292Z,63.10
2023-04-21T23:18:05.608Z,63.20
2023-04-21T23:20:32.410Z,63.10
2023-04-21T23:22:59.058Z,63.30
2023-04-21T23:25:25.625Z,63.30
2023-04-21T23:27:52.218Z,63.20
2023-04-21T23:30:18.958Z,63.20
2023-04-21T23:32:45.862Z,63.30
2023-04-21T23:35:12.688Z,63.50
2023-04-21T23:37:39.443Z,63.30
2023-04-21T23:40:09.172Z,64.10
2023-04-21T23:42:36.290Z,63.30
2023-04-21T23:45:03.654Z,63.40
2023-04-21T23:47:30.483Z,63.40
2023-04-21T23:49:57.333Z,63.50
2023-04-21T23:52:23.998Z,63.50
2023-04-21T23:54:50.758Z,63.50
2023-04-21T23:57:17.703Z,63.60
2023-04-21T23:59:44.411Z,63.60
